sensor_id;sensor_type;location;lat;lon;timestamp;pressure;altitude;pressure_sealevel;temperature;humidity
10638;BME280;47007;49.252;8.904;2022-11-20T00:00:16;99281.59;;;4.20;100.00
10638;BME280;47007;49.252;8.904;2022-11-20T00:02:43;99251.25;;;4.18;100.00
10638;BME280;47007;49.252;8.904;2022-11-20T00:05:10;99292.88;;;4.47;100.00
10638;BME280;47007;49.252;8.904;2022-11-20T00:07:37;99289.13;;;4.49;100.00
10638;BME280;47007;49.252;8.904;2022-11-20T00:10:04;99290.41;;;4.45;100.00
10638;BME280;47007;49.252;8.904;2022-11-20T00:12:31;99299.69;;;4.31;100.00
10638;BME280;47007;49.252;8.904;2022-11-20T00:14:57;99289.44;;;4.20;100.00
10638;BME280;47007;49.252;8.904;2022-11-20T00:17:24;99286.50;;;4.15;100.00
10638;BME280;47007;49.252;8.904;2022-11-20T00:19:51;99283.22;;;4.21;100.00
10638;BME280;47007;49.252;8.904;2022-11-20T00:22:17;99193.97;;;3.71;100.00
10638;BME280;47007;49.252;8.904;2022-11-20T00:24:44;99286.59;;;4.31;100.00
10638;BME280;47007;49.252;8.904;2022-11-20T00:27:11;99280.53;;;4.31;100.00
10638;BME280;47007;49.252;8.904;2022-11-20T00:29:37;99283.69;;;4.43;100.00
10638;BME280;47007;49.252;8.904;2022-11-20T00:32:04;99279.66;;;4.56;100.00
10638;BME280;47007;49.252;8.904;2022-11-20T00:34:31;99277.41;;;4.69;100.00
10638;BME280;47007;49.252;8.904;2022-11-20T00:36:57;99264.59;;;4.75;100.00
10638;BME280;47007;49.252;8.904;2022-11-20T00:39:24;99265.25;;;4.68;100.00
10638;BME280;47007;49.252;8.904;2022-11-20T00:41:51;99259.63;;;4.55;100.00
10638;BME280;47007;49.252;8.904;2022-11-20T00:44:17;99269.53;;;4.69;100.00
10638;BME280;47007;49.252;8.904;2022-11-20T00:46:44;99279.66;;;4.64;100.00
10638;BME280;47007;49.252;8.904;2022-11-20T00:49:11;99264.06;;;4.63;100.00
10638;BME280;47007;49.252;8.904;2022-11-20T00:51:37;99222.66;;;4.41;100.00
10638;BME280;47007;49.252;8.904;2022-11-20T00:54:04;99278.00;;;4.55;100.00
10638;BME280;47007;49.252;8.904;2022-11-20T00:56:31;99245.09;;;4.35;100.00
10638;BME280;47007;49.252;8.904;2022-11-20T00:58:59;99247.25;;;4.31;100.00
10638;BME280;47007;49.252;8.904;2022-11-20T01:01:27;99285.50;;;4.50;100.00
10638;BME280;47007;49.252;8.904;2022-11-20T01:03:58;99306.03;;;4.55;100.00
10638;BME280;47007;49.252;8.904;2022-11-20T01:06:31;99293.34;;;4.42;100.00
10638;BME280;47007;49.252;8.904;2022-11-20T01:09:04;99302.22;;;4.41;100.00
10638;BME280;47007;49.252;8.904;2022-11-20T01:11:36;99306.34;;;4.52;100.00
10638;BME280;47007;49.252;8.904;2022-11-20T01:14:05;99266.16;;;4.43;100.00
10638;BME280;47007;49.252;8.904;2022-11-20T01:16:33;99297.59;;;4.69;100.00
10638;BME280;47007;49.252;8.904;2022-11-20T01:19:04;99291.06;;;4.81;100.00
10638;BME280;47007;49.252;8.904;2022-11-20T01:21:34;99284.19;;;4.88;100.00
10638;BME280;47007;49.252;8.904;2022-11-20T01:24:02;99283.34;;;4.88;100.00
10638;BME280;47007;49.252;8.904;2022-11-20T01:26:34;99282.38;;;4.97;100.00
10638;BME280;47007;49.252;8.904;2022-11-20T01:29:03;99255.13;;;4.90;100.00
10638;BME280;47007;49.252;8.904;2022-11-20T01:31:35;99228.22;;;4.80;100.00
10638;BME280;47007;49.252;8.904;2022-11-20T01:34:04;99275.00;;;5.00;100.00
10638;BME280;47007;49.252;8.904;2022-11-20T01:36:33;99253.47;;;4.81;100.00
10638;BME280;47007;49.252;8.904;2022-11-20T01:39:10;99245.16;;;4.51;100.00
10638;BME280;47007;49.252;8.904;2022-11-20T01:41:38;99272.25;;;4.52;100.00
10638;BME280;47007;49.252;8.904;2022-11-20T01:44:45;99277.28;;;4.45;100.00
10638;BME280;47007;49.252;8.904;2022-11-20T01:47:16;99270.06;;;4.39;100.00
10638;BME280;47007;49.252;8.904;2022-11-20T01:49:49;99240.81;;;4.26;100.00
10638;BME280;47007;49.252;8.904;2022-11-20T01:52:21;99282.72;;;4.52;100.00
10638;BME280;47007;49.252;8.904;2022-11-20T01:54:59;99279.44;;;4.50;100.00
10638;BME280;47007;49.252;8.904;2022-11-20T01:57:29;99273.50;;;4.40;100.00
10638;BME280;47007;49.252;8.904;2022-11-20T02:00:03;99288.44;;;4.47;100.00
10638;BME280;47007;49.252;8.904;2022-11-20T02:02:39;99282.53;;;4.45;100.00
10638;BME280;47007;49.252;8.904;2022-11-20T02:05:23;99285.81;;;4.47;100.00
10638;BME280;47007;49.252;8.904;2022-11-20T02:07:52;99291.41;;;4.44;100.00
10638;BME280;47007;49.252;8.904;2022-11-20T02:10:20;99292.00;;;4.38;100.00
10638;BME280;47007;49.252;8.904;2022-11-20T02:12:47;99303.19;;;4.40;100.00
10638;BME280;47007;49.252;8.904;2022-11-20T02:15:33;99299.88;;;4.38;100.00
10638;BME280;47007;49.252;8.904;2022-11-20T02:18:00;99297.25;;;4.38;100.00
10638;BME280;47007;49.252;8.904;2022-11-20T02:23:26;99286.50;;;4.49;100.00
10638;BME280;47007;49.252;8.904;2022-11-20T02:25:55;99283.13;;;4.65;100.00
10638;BME280;47007;49.252;8.904;2022-11-20T02:28:22;99272.78;;;4.72;100.00
10638;BME280;47007;49.252;8.904;2022-11-20T02:30:49;99258.66;;;4.56;100.00
10638;BME280;47007;49.252;8.904;2022-11-20T02:33:16;99271.13;;;4.62;100.00
10638;BME280;47007;49.252;8.904;2022-11-20T02:35:45;99243.06;;;4.55;100.00
10638;BME280;47007;49.252;8.904;2022-11-20T02:38:13;99266.25;;;4.67;100.00
10638;BME280;47007;49.252;8.904;2022-11-20T02:40:41;99269.63;;;4.60;100.00
10638;BME280;47007;49.252;8.904;2022-11-20T02:43:08;99246.16;;;4.50;100.00
10638;BME280;47007;49.252;8.904;2022-11-20T02:45:35;99264.38;;;4.60;100.00
10638;BME280;47007;49.252;8.904;2022-11-20T02:48:02;99237.75;;;4.47;100.00
10638;BME280;47007;49.252;8.904;2022-11-20T02:50:28;99258.53;;;4.66;100.00
10638;BME280;47007;49.252;8.904;2022-11-20T02:52:55;99237.66;;;4.56;100.00
10638;BME280;47007;49.252;8.904;2022-11-20T02:55:22;99235.03;;;4.56;100.00
10638;BME280;47007;49.252;8.904;2022-11-20T02:57:49;99248.69;;;4.68;100.00
10638;BME280;47007;49.252;8.904;2022-11-20T03:00:15;99251.78;;;4.72;100.00
10638;BME280;47007;49.252;8.904;2022-11-20T03:02:42;99236.41;;;4.85;100.00
10638;BME280;47007;49.252;8.904;2022-11-20T03:05:09;99249.22;;;4.96;100.00
10638;BME280;47007;49.252;8.904;2022-11-20T03:07:36;99220.81;;;4.75;100.00
10638;BME280;47007;49.252;8.904;2022-11-20T03:10:04;99246.44;;;4.89;100.00
10638;BME280;47007;49.252;8.904;2022-11-20T03:12:31;99204.88;;;4.68;100.00
10638;BME280;47007;49.252;8.904;2022-11-20T03:14:57;99226.41;;;4.96;100.00
10638;BME280;47007;49.252;8.904;2022-11-20T03:17:24;99228.09;;;5.22;100.00
10638;BME280;47007;49.252;8.904;2022-11-20T03:19:51;99202.16;;;5.19;100.00
10638;BME280;47007;49.252;8.904;2022-11-20T03:22:19;99220.72;;;5.41;100.00
10638;BME280;47007;49.252;8.904;2022-11-20T03:24:45;99219.06;;;5.32;100.00
10638;BME280;47007;49.252;8.904;2022-11-20T03:27:12;99211.50;;;5.21;100.00
10638;BME280;47007;49.252;8.904;2022-11-20T03:29:39;99220.72;;;5.25;100.00
10638;BME280;47007;49.252;8.904;2022-11-20T03:32:06;99203.47;;;5.07;100.00
10638;BME280;47007;49.252;8.904;2022-11-20T03:34:32;99203.28;;;4.92;100.00
10638;BME280;47007;49.252;8.904;2022-11-20T03:36:59;99223.81;;;5.04;100.00
10638;BME280;47007;49.252;8.904;2022-11-20T03:39:26;99215.28;;;5.02;100.00
10638;BME280;47007;49.252;8.904;2022-11-20T03:41:53;99230.53;;;5.07;100.00
10638;BME280;47007;49.252;8.904;2022-11-20T03:44:21;99206.88;;;4.91;100.00
10638;BME280;47007;49.252;8.904;2022-11-20T03:46:47;99223.31;;;4.93;100.00
10638;BME280;47007;49.252;8.904;2022-11-20T03:49:14;99223.34;;;5.17;100.00
10638;BME280;47007;49.252;8.904;2022-11-20T03:51:41;99210.69;;;5.21;100.00
10638;BME280;47007;49.252;8.904;2022-11-20T03:54:08;99212.50;;;5.36;100.00
10638;BME280;47007;49.252;8.904;2022-11-20T03:56:37;99209.06;;;5.28;100.00
10638;BME280;47007;49.252;8.904;2022-11-20T03:59:06;99224.00;;;5.19;100.00
10638;BME280;47007;49.252;8.904;2022-11-20T04:01:35;99222.50;;;5.25;100.00
10638;BME280;47007;49.252;8.904;2022-11-20T04:04:03;99221.19;;;5.13;100.00
10638;BME280;47007;49.252;8.904;2022-11-20T04:06:35;99219.38;;;5.05;100.00
10638;BME280;47007;49.252;8.904;2022-11-20T04:09:02;99181.56;;;4.74;100.00
10638;BME280;47007;49.252;8.904;2022-11-20T04:11:31;99199.47;;;4.78;100.00
10638;BME280;47007;49.252;8.904;2022-11-20T04:14:01;99218.03;;;4.85;100.00
10638;BME280;47007;49.252;8.904;2022-11-20T04:16:35;99237.72;;;4.81;100.00
10638;BME280;47007;49.252;8.904;2022-11-20T04:19:05;99235.41;;;4.69;100.00
10638;BME280;47007;49.252;8.904;2022-11-20T04:21:32;99219.25;;;4.48;100.00
10638;BME280;47007;49.252;8.904;2022-11-20T04:23:59;99217.28;;;4.42;100.00
10638;BME280;47007;49.252;8.904;2022-11-20T04:26:27;99236.84;;;4.64;100.00
10638;BME280;47007;49.252;8.904;2022-11-20T04:28:55;99228.31;;;4.62;100.00
10638;BME280;47007;49.252;8.904;2022-11-20T04:31:26;99221.09;;;4.64;100.00
10638;BME280;47007;49.252;8.904;2022-11-20T04:33:53;99216.69;;;4.64;100.00
10638;BME280;47007;49.252;8.904;2022-11-20T04:36:23;99227.69;;;4.76;100.00
10638;BME280;47007;49.252;8.904;2022-11-20T04:38:55;99214.91;;;4.81;100.00
10638;BME280;47007;49.252;8.904;2022-11-20T04:41:27;99205.72;;;4.85;100.00
10638;BME280;47007;49.252;8.904;2022-11-20T04:43:57;99221.00;;;4.98;100.00
10638;BME280;47007;49.252;8.904;2022-11-20T04:46:35;99215.59;;;4.91;100.00
10638;BME280;47007;49.252;8.904;2022-11-20T04:49:03;99220.69;;;4.93;100.00
10638;BME280;47007;49.252;8.904;2022-11-20T04:51:30;99213.47;;;5.03;100.00
10638;BME280;47007;49.252;8.904;2022-11-20T04:53:57;99205.75;;;5.10;100.00
10638;BME280;47007;49.252;8.904;2022-11-20T04:56:24;99198.22;;;5.15;100.00
10638;BME280;47007;49.252;8.904;2022-11-20T04:58:51;99203.00;;;5.19;100.00
10638;BME280;47007;49.252;8.904;2022-11-20T05:01:20;99218.41;;;5.22;100.00
10638;BME280;47007;49.252;8.904;2022-11-20T05:03:48;99213.16;;;5.22;100.00
10638;BME280;47007;49.252;8.904;2022-11-20T05:06:16;99218.25;;;5.24;100.00
10638;BME280;47007;49.252;8.904;2022-11-20T05:08:43;99197.03;;;5.09;100.00
10638;BME280;47007;49.252;8.904;2022-11-20T05:11:19;99219.06;;;5.32;100.00
10638;BME280;47007;49.252;8.904;2022-11-20T05:13:46;99213.81;;;5.40;100.00
10638;BME280;47007;49.252;8.904;2022-11-20T05:16:18;99211.84;;;5.51;100.00
10638;BME280;47007;49.252;8.904;2022-11-20T05:18:46;99218.72;;;5.52;100.00
10638;BME280;47007;49.252;8.904;2022-11-20T05:21:13;99214.97;;;5.54;100.00
10638;BME280;47007;49.252;8.904;2022-11-20T05:23:41;99209.03;;;5.52;100.00
10638;BME280;47007;49.252;8.904;2022-11-20T05:26:13;99180.31;;;5.43;100.00
10638;BME280;47007;49.252;8.904;2022-11-20T05:28:41;99207.91;;;5.55;100.00
10638;BME280;47007;49.252;8.904;2022-11-20T05:31:12;99208.53;;;5.49;100.00
10638;BME280;47007;49.252;8.904;2022-11-20T05:33:40;99215.94;;;5.53;100.00
10638;BME280;47007;49.252;8.904;2022-11-20T05:36:08;99208.22;;;5.27;100.00
10638;BME280;47007;49.252;8.904;2022-11-20T05:38:35;99212.47;;;5.45;100.00
10638;BME280;47007;49.252;8.904;2022-11-20T05:41:13;99234.50;;;5.52;100.00
10638;BME280;47007;49.252;8.904;2022-11-20T05:43:42;99222.03;;;5.54;100.00
10638;BME280;47007;49.252;8.904;2022-11-20T05:46:12;99188.53;;;5.39;100.00
10638;BME280;47007;49.252;8.904;2022-11-20T05:48:41;99218.56;;;5.53;100.00
10638;BME280;47007;49.252;8.904;2022-11-20T05:51:10;99206.41;;;5.52;100.00
10638;BME280;47007;49.252;8.904;2022-11-20T05:53:37;99214.13;;;5.54;100.00
10638;BME280;47007;49.252;8.904;2022-11-20T05:56:11;99210.81;;;5.60;100.00
10638;BME280;47007;49.252;8.904;2022-11-20T05:58:38;99202.28;;;5.66;100.00
10638;BME280;47007;49.252;8.904;2022-11-20T06:01:16;99208.69;;;5.71;100.00
10638;BME280;47007;49.252;8.904;2022-11-20T06:03:45;99211.81;;;5.75;100.00
10638;BME280;47007;49.252;8.904;2022-11-20T06:06:15;99210.00;;;5.75;100.00
10638;BME280;47007;49.252;8.904;2022-11-20T06:08:43;99215.75;;;5.79;100.00
10638;BME280;47007;49.252;8.904;2022-11-20T06:11:12;99213.41;;;5.84;100.00
10638;BME280;47007;49.252;8.904;2022-11-20T06:13:39;99213.41;;;5.84;100.00
10638;BME280;47007;49.252;8.904;2022-11-20T06:16:09;99211.28;;;5.88;100.00
10638;BME280;47007;49.252;8.904;2022-11-20T06:18:36;99218.38;;;5.71;100.00
10638;BME280;47007;49.252;8.904;2022-11-20T06:21:06;99219.22;;;5.63;100.00
10638;BME280;47007;49.252;8.904;2022-11-20T06:23:34;99225.94;;;5.66;100.00
10638;BME280;47007;49.252;8.904;2022-11-20T06:26:09;99235.81;;;5.80;100.00
10638;BME280;47007;49.252;8.904;2022-11-20T06:28:36;99218.06;;;5.90;100.00
10638;BME280;47007;49.252;8.904;2022-11-20T06:31:04;99217.03;;;5.99;100.00
10638;BME280;47007;49.252;8.904;2022-11-20T06:33:31;99213.41;;;6.00;100.00
10638;BME280;47007;49.252;8.904;2022-11-20T06:35:59;99230.97;;;6.08;100.00
10638;BME280;47007;49.252;8.904;2022-11-20T06:38:34;99228.88;;;6.03;100.00
10638;BME280;47007;49.252;8.904;2022-11-20T06:41:03;99224.44;;;6.04;100.00
10638;BME280;47007;49.252;8.904;2022-11-20T06:43:29;99226.88;;;6.13;100.00
10638;BME280;47007;49.252;8.904;2022-11-20T06:45:58;99225.84;;;6.23;100.00
10638;BME280;47007;49.252;8.904;2022-11-20T06:48:27;99228.75;;;6.36;100.00
10638;BME280;47007;49.252;8.904;2022-11-20T06:51:15;99218.94;;;6.30;100.00
10638;BME280;47007;49.252;8.904;2022-11-20T06:53:42;99223.97;;;6.39;100.00
10638;BME280;47007;49.252;8.904;2022-11-20T06:56:09;99216.09;;;6.39;100.00
10638;BME280;47007;49.252;8.904;2022-11-20T06:58:36;99210.66;;;6.41;100.00
10638;BME280;47007;49.252;8.904;2022-11-20T07:01:09;99208.69;;;6.35;100.00
10638;BME280;47007;49.252;8.904;2022-11-20T07:03:37;99222.34;;;6.38;100.00
10638;BME280;47007;49.252;8.904;2022-11-20T07:06:04;99218.56;;;6.41;100.00
10638;BME280;47007;49.252;8.904;2022-11-20T07:08:32;99218.19;;;6.44;100.00
10638;BME280;47007;49.252;8.904;2022-11-20T07:11:00;99223.88;;;6.56;100.00
10638;BME280;47007;49.252;8.904;2022-11-20T07:13:29;99201.88;;;6.48;100.00
10638;BME280;47007;49.252;8.904;2022-11-20T07:16:03;99211.34;;;6.66;100.00
10638;BME280;47007;49.252;8.904;2022-11-20T07:18:30;99218.88;;;6.69;100.00
10638;BME280;47007;49.252;8.904;2022-11-20T07:21:05;99219.38;;;6.72;100.00
10638;BME280;47007;49.252;8.904;2022-11-20T07:23:33;99218.88;;;6.69;100.00
10638;BME280;47007;49.252;8.904;2022-11-20T07:26:07;99228.75;;;6.75;100.00
10638;BME280;47007;49.252;8.904;2022-11-20T07:28:34;99211.19;;;6.67;100.00
10638;BME280;47007;49.252;8.904;2022-11-20T07:31:01;99204.63;;;6.63;100.00
10638;BME280;47007;49.252;8.904;2022-11-20T07:33:29;99227.22;;;6.80;100.00
10638;BME280;47007;49.252;8.904;2022-11-20T07:35:58;99213.59;;;6.77;100.00
10638;BME280;47007;49.252;8.904;2022-11-20T07:38:25;99230.81;;;6.88;100.00
10638;BME280;47007;49.252;8.904;2022-11-20T07:40:58;99233.63;;;6.86;100.00
10638;BME280;47007;49.252;8.904;2022-11-20T07:43:27;99240.34;;;6.89;100.00
10638;BME280;47007;49.252;8.904;2022-11-20T07:45:55;99216.69;;;6.80;100.00
10638;BME280;47007;49.252;8.904;2022-11-20T07:48:23;99224.84;;;6.94;100.00
10638;BME280;47007;49.252;8.904;2022-11-20T07:50:55;99221.84;;;6.97;100.00
10638;BME280;47007;49.252;8.904;2022-11-20T07:53:22;99225.56;;;7.10;100.00
10638;BME280;47007;49.252;8.904;2022-11-20T07:55:49;99235.75;;;7.13;100.00
10638;BME280;47007;49.252;8.904;2022-11-20T07:58:19;99237.41;;;7.14;100.00
10638;BME280;47007;49.252;8.904;2022-11-20T08:00:46;99225.56;;;7.10;100.00
10638;BME280;47007;49.252;8.904;2022-11-20T08:03:13;99223.41;;;7.14;100.00
10638;BME280;47007;49.252;8.904;2022-11-20T08:05:41;99228.44;;;7.24;100.00
10638;BME280;47007;49.252;8.904;2022-11-20T08:08:08;99208.75;;;7.11;100.00
10638;BME280;47007;49.252;8.904;2022-11-20T08:10:35;99215.75;;;7.19;100.00
10638;BME280;47007;49.252;8.904;2022-11-20T08:13:02;99225.06;;;7.30;100.00
10638;BME280;47007;49.252;8.904;2022-11-20T08:15:48;99222.59;;;7.51;100.00
10638;BME280;47007;49.252;8.904;2022-11-20T08:18:17;99224.78;;;7.47;100.00
10638;BME280;47007;49.252;8.904;2022-11-20T08:21:03;99232.84;;;7.46;100.00
10638;BME280;47007;49.252;8.904;2022-11-20T08:23:30;99243.56;;;7.44;100.00
10638;BME280;47007;49.252;8.904;2022-11-20T08:25:57;99208.84;;;7.41;100.00
10638;BME280;47007;49.252;8.904;2022-11-20T08:28:24;99219.88;;;7.59;100.00
10638;BME280;47007;49.252;8.904;2022-11-20T08:30:51;99212.19;;;7.72;100.00
10638;BME280;47007;49.252;8.904;2022-11-20T08:33:23;99193.50;;;7.59;100.00
10638;BME280;47007;49.252;8.904;2022-11-20T08:35:50;99235.47;;;7.69;100.00
10638;BME280;47007;49.252;8.904;2022-11-20T08:38:17;99235.72;;;7.59;100.00
10638;BME280;47007;49.252;8.904;2022-11-20T08:40:44;99237.66;;;7.65;100.00
10638;BME280;47007;49.252;8.904;2022-11-20T08:43:30;99229.91;;;7.64;100.00
10638;BME280;47007;49.252;8.904;2022-11-20T08:45:57;99208.13;;;7.47;100.00
10638;BME280;47007;49.252;8.904;2022-11-20T08:48:24;99240.91;;;7.67;100.00
10638;BME280;47007;49.252;8.904;2022-11-20T08:50:51;99227.94;;;7.66;100.00
10638;BME280;47007;49.252;8.904;2022-11-20T08:53:17;99242.22;;;7.86;100.00
10638;BME280;47007;49.252;8.904;2022-11-20T08:55:44;99239.31;;;7.81;100.00
10638;BME280;47007;49.252;8.904;2022-11-20T08:58:11;99247.16;;;7.89;100.00
10638;BME280;47007;49.252;8.904;2022-11-20T09:00:38;99235.41;;;7.77;100.00
10638;BME280;47007;49.252;8.904;2022-11-20T09:03:05;99241.72;;;7.68;100.00
10638;BME280;47007;49.252;8.904;2022-11-20T09:05:31;99243.22;;;7.85;100.00
10638;BME280;47007;49.252;8.904;2022-11-20T09:07:59;99244.50;;;7.89;100.00
10638;BME280;47007;49.252;8.904;2022-11-20T09:10:26;99251.22;;;7.91;100.00
10638;BME280;47007;49.252;8.904;2022-11-20T09:12:54;99244.25;;;7.99;100.00
10638;BME280;47007;49.252;8.904;2022-11-20T09:15:23;99254.28;;;8.03;100.00
10638;BME280;47007;49.252;8.904;2022-11-20T09:17:54;99254.91;;;7.90;100.00
10638;BME280;47007;49.252;8.904;2022-11-20T09:20:21;99263.91;;;7.96;100.00
10638;BME280;47007;49.252;8.904;2022-11-20T09:22:48;99254.34;;;7.95;100.00
10638;BME280;47007;49.252;8.904;2022-11-20T09:25:16;99267.97;;;7.84;100.00
10638;BME280;47007;49.252;8.904;2022-11-20T09:27:43;99269.13;;;7.81;100.00
10638;BME280;47007;49.252;8.904;2022-11-20T09:30:14;99279.69;;;7.81;100.00
10638;BME280;47007;49.252;8.904;2022-11-20T09:32:41;99274.84;;;7.70;100.00
10638;BME280;47007;49.252;8.904;2022-11-20T09:35:08;99264.38;;;7.62;100.00
10638;BME280;47007;49.252;8.904;2022-11-20T09:37:35;99276.84;;;7.68;100.00
10638;BME280;47007;49.252;8.904;2022-11-20T09:40:03;99268.91;;;7.68;100.00
10638;BME280;47007;49.252;8.904;2022-11-20T09:42:41;99275.50;;;7.72;100.00
10638;BME280;47007;49.252;8.904;2022-11-20T09:56:04;99259.63;;;7.95;100.00
10638;BME280;47007;49.252;8.904;2022-11-20T09:58:35;99248.06;;;7.96;100.00
10638;BME280;47007;49.252;8.904;2022-11-20T10:01:11;99257.91;;;8.17;100.00
10638;BME280;47007;49.252;8.904;2022-11-20T10:06:34;99246.91;;;8.43;100.00
10638;BME280;47007;49.252;8.904;2022-11-20T10:24:56;99273.19;;;8.07;100.00
10638;BME280;47007;49.252;8.904;2022-11-20T10:30:06;99262.91;;;8.12;100.00
10638;BME280;47007;49.252;8.904;2022-11-20T10:32:38;99265.47;;;8.20;100.00
10638;BME280;47007;49.252;8.904;2022-11-20T10:35:34;99261.91;;;8.13;100.00
10638;BME280;47007;49.252;8.904;2022-11-20T10:38:12;99264.72;;;7.97;100.00
10638;BME280;47007;49.252;8.904;2022-11-20T10:40:49;99265.00;;;8.02;100.00
10638;BME280;47007;49.252;8.904;2022-11-20T10:43:21;99260.91;;;7.99;100.00
10638;BME280;47007;49.252;8.904;2022-11-20T10:45:59;99253.19;;;8.12;100.00
10638;BME280;47007;49.252;8.904;2022-11-20T10:48:28;99228.06;;;8.02;100.00
10638;BME280;47007;49.252;8.904;2022-11-20T10:57:01;99192.38;;;7.91;100.00
10638;BME280;47007;49.252;8.904;2022-11-20T11:02:22;99239.16;;;8.12;100.00
10638;BME280;47007;49.252;8.904;2022-11-20T11:04:53;99214.69;;;8.03;100.00
10638;BME280;47007;49.252;8.904;2022-11-20T11:09:52;99228.44;;;8.13;100.00
10638;BME280;47007;49.252;8.904;2022-11-20T11:12:28;99236.06;;;8.08;100.00
10638;BME280;47007;49.252;8.904;2022-11-20T11:14:56;99225.59;;;8.00;100.00
10638;BME280;47007;49.252;8.904;2022-11-20T11:17:33;99230.78;;;8.08;100.00
10638;BME280;47007;49.252;8.904;2022-11-20T11:20:15;99221.41;;;8.20;100.00
10638;BME280;47007;49.252;8.904;2022-11-20T11:23:01;99203.09;;;8.63;100.00
10638;BME280;47007;49.252;8.904;2022-11-20T11:25:33;99198.34;;;8.73;100.00
10638;BME280;47007;49.252;8.904;2022-11-20T11:30:42;99183.94;;;9.18;100.00
10638;BME280;47007;49.252;8.904;2022-11-20T11:33:17;99155.44;;;9.14;100.00
10638;BME280;47007;49.252;8.904;2022-11-20T11:35:47;99151.09;;;9.06;100.00
10638;BME280;47007;49.252;8.904;2022-11-20T11:38:22;99167.00;;;9.34;100.00
10638;BME280;47007;49.252;8.904;2022-11-20T11:40:54;99127.16;;;9.42;100.00
10638;BME280;47007;49.252;8.904;2022-11-20T11:43:26;99148.91;;;10.34;100.00
10638;BME280;47007;49.252;8.904;2022-11-20T11:49:19;99127.31;;;9.96;100.00
10638;BME280;47007;49.252;8.904;2022-11-20T11:54:20;99138.91;;;9.61;100.00
10638;BME280;47007;49.252;8.904;2022-11-20T11:56:50;99087.81;;;9.05;100.00
10638;BME280;47007;49.252;8.904;2022-11-20T11:59:26;99151.38;;;9.18;100.00
10638;BME280;47007;49.252;8.904;2022-11-20T12:01:58;99164.59;;;9.18;100.00
10638;BME280;47007;49.252;8.904;2022-11-20T12:04:44;99156.97;;;9.29;100.00
10638;BME280;47007;49.252;8.904;2022-11-20T12:07:32;99148.56;;;9.75;100.00
10638;BME280;47007;49.252;8.904;2022-11-20T12:10:22;99120.19;;;9.97;100.00
10638;BME280;47007;49.252;8.904;2022-11-20T12:13:00;99093.91;;;10.36;100.00
10638;BME280;47007;49.252;8.904;2022-11-20T12:15:31;99130.94;;;11.24;100.00
10638;BME280;47007;49.252;8.904;2022-11-20T12:17:59;99127.44;;;11.56;100.00
10638;BME280;47007;49.252;8.904;2022-11-20T12:20:31;99114.97;;;11.63;100.00
10638;BME280;47007;49.252;8.904;2022-11-20T12:25:58;99098.09;;;10.98;100.00
10638;BME280;47007;49.252;8.904;2022-11-20T12:28:43;99098.25;;;10.77;100.00
10638;BME280;47007;49.252;8.904;2022-11-20T12:34:35;99075.97;;;10.52;100.00
10638;BME280;47007;49.252;8.904;2022-11-20T12:37:28;99096.84;;;10.94;100.00
10638;BME280;47007;49.252;8.904;2022-11-20T12:40:24;99099.25;;;10.50;100.00
10638;BME280;47007;49.252;8.904;2022-11-20T12:48:38;99107.16;;;9.61;100.00
10638;BME280;47007;49.252;8.904;2022-11-20T13:06:05;99135.22;;;10.98;100.00
10638;BME280;47007;49.252;8.904;2022-11-20T13:08:20;99097.06;;;11.06;100.00
10638;BME280;47007;49.252;8.904;2022-11-20T13:11:03;99116.84;;;11.49;100.00
10638;BME280;47007;49.252;8.904;2022-11-20T13:18:43;99093.75;;;10.64;100.00
10638;BME280;47007;49.252;8.904;2022-11-20T13:21:22;99092.50;;;10.54;100.00
10638;BME280;47007;49.252;8.904;2022-11-20T13:27:20;99088.84;;;10.55;100.00
10638;BME280;47007;49.252;8.904;2022-11-20T13:30:00;99090.63;;;10.41;100.00
10638;BME280;47007;49.252;8.904;2022-11-20T13:32:28;99075.31;;;10.30;100.00
10638;BME280;47007;49.252;8.904;2022-11-20T13:35:01;99058.31;;;10.04;100.00
10638;BME280;47007;49.252;8.904;2022-11-20T13:42:45;99074.00;;;10.06;100.00
10638;BME280;47007;49.252;8.904;2022-11-20T13:45:26;99080.44;;;9.90;100.00
10638;BME280;47007;49.252;8.904;2022-11-20T13:47:54;99075.13;;;9.84;100.00
10638;BME280;47007;49.252;8.904;2022-11-20T13:56:00;99076.94;;;9.77;100.00
10638;BME280;47007;49.252;8.904;2022-11-20T14:01:42;99095.66;;;9.75;100.00
10638;BME280;47007;49.252;8.904;2022-11-20T14:04:26;99068.69;;;9.58;100.00
10638;BME280;47007;49.252;8.904;2022-11-20T14:06:53;99084.31;;;9.88;100.00
10638;BME280;47007;49.252;8.904;2022-11-20T14:09:29;99083.31;;;9.89;100.00
10638;BME280;47007;49.252;8.904;2022-11-20T14:11:56;99081.03;;;9.86;100.00
10638;BME280;47007;49.252;8.904;2022-11-20T14:14:25;99067.19;;;9.84;100.00
10638;BME280;47007;49.252;8.904;2022-11-20T14:19:51;99065.88;;;9.66;100.00
10638;BME280;47007;49.252;8.904;2022-11-20T14:22:23;99079.41;;;9.91;100.00
10638;BME280;47007;49.252;8.904;2022-11-20T14:27:40;99063.06;;;9.40;100.00
10638;BME280;47007;49.252;8.904;2022-11-20T14:30:15;99046.63;;;9.17;100.00
10638;BME280;47007;49.252;8.904;2022-11-20T14:32:44;99049.63;;;9.07;100.00
10638;BME280;47007;49.252;8.904;2022-11-20T14:35:23;99055.09;;;9.06;100.00
10638;BME280;47007;49.252;8.904;2022-11-20T14:37:51;99033.84;;;8.92;100.00
10638;BME280;47007;49.252;8.904;2022-11-20T14:40:26;99053.44;;;8.98;100.00
10638;BME280;47007;49.252;8.904;2022-11-20T14:42:53;99048.84;;;8.85;100.00
10638;BME280;47007;49.252;8.904;2022-11-20T14:45:21;99064.06;;;8.83;100.00
10638;BME280;47007;49.252;8.904;2022-11-20T14:47:48;99062.13;;;8.71;100.00
10638;BME280;47007;49.252;8.904;2022-11-20T14:50:28;99069.25;;;8.70;100.00
10638;BME280;47007;49.252;8.904;2022-11-20T14:52:56;99053.34;;;8.63;100.00
10638;BME280;47007;49.252;8.904;2022-11-20T14:55:31;99057.00;;;8.62;100.00
10638;BME280;47007;49.252;8.904;2022-11-20T14:58:04;99061.81;;;8.59;100.00
10638;BME280;47007;49.252;8.904;2022-11-20T15:00:33;99058.69;;;8.49;100.00
10638;BME280;47007;49.252;8.904;2022-11-20T15:03:00;99027.56;;;8.29;100.00
10638;BME280;47007;49.252;8.904;2022-11-20T15:05:47;99051.25;;;8.38;100.00